Wasilla Airport
PAWS : now visible

Airfield :











YOU CAN JOIN US ON...

 
LOGIN :

Register | Disclaimer

   EN    FR    IT 

 









Legend :    VFR   Marginal VFR   IFR   Intensive IFR   Very Intensive IFR
Visi :
Ceiling :
>= 8 km
>= 3000ft
5 to 8 km
1000 to 3000 ft
1500m to 5 km
500 to 1000 ft
800 to 1500m
200 to 500 ft
< 800m
< 200 ft
Symbols :   Thunderstorms  Fog  Heavy snow  Heavy precipitations  Wind > 20 kt






- Airport Elevation : 354 ft
- IATA code : IYS


PAWS - Wasilla

CURRENT METAR :
  • 260856Z AUTO 04014G19KT 10SM BKN038 M06/M16 A2955 RMK AO2 PK WND 03026/0836 SLP016 T10611156 410561083 58003 FZRANO

EXPIRED METARs :
  • 260756Z AUTO 04014G24KT 10SM OVC038 M06/M16 A2956 RMK AO2 PK WND 05027/0713 SLP017 T10561156 FZRANO
  • 260656Z AUTO 04010G22KT 10SM BKN038 OVC120 M06/M15 A2957 RMK AO2 SLP020 T10561150 FZRANO

TAF N/A



MET'MAP, your aeronautical weather chart ! - Copyright ORBIFLY December 2007 - Disclaimer

ORBIFLY MET'MAP TEAM :

Programming & Development : Alexandra Zaïnal
Concept & original design : Baudouin d'Aumeries
Assistance for programming : Marc-Olivier Méhu
Technical & hardware support : Manuel Goepfert

Contact : metmap@orbifly.com




SOURCES & CREDITS :

   NOAA       Earth
Advisory